Time;durP1;ratioP1;P1;durP2;ratioP2;P2;SDS_P1;SDS_P2;PMS_P1;PMS_P2;Temp;Humidity;BMP_temperature;BMP_pressure;BME280_temperature;BME280_humidity;BME280_pressure;Samples;Min_cycle;Max_cycle;Signal;HPM_P1;HPM_P2
2022/04/21 00:00:31;;;;;;;8.95;8.05;;;;;;;7.62;56.57;99490.72;5034814;28;20025;-90
2022/04/21 00:02:56;;;;;;;8.27;6.97;;;;;;;8.00;56.59;99553.38;5052898;28;20027;-90
2022/04/21 00:05:22;;;;;;;8.25;7.45;;;;;;;8.27;56.95;99596.03;5034781;28;20056;-90
2022/04/21 00:07:48;;;;;;;8.73;7.90;;;;;;;7.64;56.45;99519.44;5052434;28;20049;-90
2022/04/21 00:10:14;;;;;;;8.48;7.68;;;;;;;7.62;56.77;99485.47;5034555;28;20028;-90
2022/04/21 00:12:40;;;;;;;9.10;7.90;;;;;;;7.87;56.38;99559.09;5034331;28;20029;-90
2022/04/21 00:15:07;;;;;;;15.10;12.55;;;;;;;8.22;56.95;99624.63;5034507;28;20113;-89
2022/04/21 00:17:33;;;;;;;20.25;14.77;;;;;;;8.28;56.86;99623.97;5052847;28;20023;-89
2022/04/21 00:19:59;;;;;;;11.43;10.23;;;;;;;6.92;56.92;99449.88;5035181;28;20560;-89
2022/04/21 00:25:10;;;;;;;8.98;8.07;;;;;;;7.78;57.14;99579.28;5066543;28;20032;-94
2022/04/21 00:27:39;;;;;;;10.32;9.25;;;;;;;7.60;57.30;99560.16;5066610;28;20025;-93
2022/04/21 00:30:08;;;;;;;11.70;10.02;;;;;;;7.18;57.18;99553.06;5066639;28;20030;-94
2022/04/21 00:32:35;;;;;;;9.13;8.32;;;;;;;8.00;56.82;99635.72;5043809;28;20050;-96
2022/04/21 00:35:01;;;;;;;9.07;8.20;;;;;;;7.80;56.78;99613.28;5036236;28;20029;-95
2022/04/21 00:37:27;;;;;;;8.75;7.85;;;;;;;7.21;57.13;99529.09;5035982;28;20468;-96
2022/04/21 00:39:52;;;;;;;9.32;8.43;;;;;;;7.15;57.07;99505.28;5053785;28;20104;-96
2022/04/21 00:42:18;;;;;;;9.80;8.80;;;;;;;7.62;57.04;99582.69;5053567;28;20130;-96
2022/04/21 00:44:44;;;;;;;9.95;9.05;;;;;;;7.40;57.47;99535.09;5035614;28;20029;-96
2022/04/21 00:47:10;;;;;;;10.35;9.38;;;;;;;7.83;57.33;99605.91;5053692;28;20047;-95
2022/04/21 00:49:36;;;;;;;10.35;9.35;;;;;;;6.73;57.36;99468.47;5035901;28;20021;-95
2022/04/21 00:52:03;;;;;;;9.30;8.43;;;;;;;6.66;57.23;99442.84;5035744;28;20021;-96
2022/04/21 00:54:33;;;;;;;10.23;9.05;;;;;;;7.91;57.22;99621.72;5036096;28;20021;-95
2022/04/21 00:57:02;;;;;;;7.65;6.95;;;;;;;7.97;57.44;99625.50;5035615;28;20045;-96
2022/04/21 00:59:28;;;;;;;8.65;7.95;;;;;;;7.31;56.75;99547.38;5053102;28;20025;-96
2022/04/21 01:04:41;;;;;;;8.60;7.75;;;;;;;7.95;56.23;99609.91;5053310;28;20496;-96
2022/04/21 01:07:08;;;;;;;9.38;8.32;;;;;;;6.89;56.51;99471.19;5035766;28;20582;-96
2022/04/21 01:09:38;;;;;;;9.20;8.40;;;;;;;6.72;56.32;99406.50;5035626;28;20532;-96
2022/04/21 01:12:11;;;;;;;9.63;8.73;;;;;;;8.11;56.96;99618.81;5035400;28;20505;-95
2022/04/21 01:14:37;;;;;;;9.45;8.45;;;;;;;8.09;56.55;99621.59;5053435;28;20029;-96
2022/04/21 01:17:06;;;;;;;9.82;8.90;;;;;;;7.74;56.45;99566.63;5035228;28;20035;-95
2022/04/21 01:19:32;;;;;;;9.52;8.55;;;;;;;7.91;56.79;99611.19;5052715;28;20100;-96
2022/04/21 01:21:58;;;;;;;10.27;9.27;;;;;;;7.47;56.16;99573.75;5053491;28;20029;-94
2022/04/21 01:24:24;;;;;;;9.40;8.30;;;;;;;7.96;56.18;99637.84;5035351;28;20032;-95
2022/04/21 01:26:49;;;;;;;10.00;9.00;;;;;;;8.06;56.31;99658.75;5035147;28;20021;-96
2022/04/21 01:29:15;;;;;;;10.07;8.63;;;;;;;7.52;56.52;99571.47;5052695;28;20032;-96
2022/04/21 01:31:40;;;;;;;9.30;8.43;;;;;;;7.38;56.63;99577.28;5035551;28;20017;-95
2022/04/21 01:34:06;;;;;;;9.65;8.63;;;;;;;7.39;56.48;99615.69;5035119;28;20025;-95
2022/04/21 01:36:31;;;;;;;9.30;8.40;;;;;;;7.18;57.04;99615.25;5052536;28;20095;-95
2022/04/21 01:41:40;;;;;;;10.25;9.05;;;;;;;7.17;57.15;99666.94;5057555;28;20031;-96
2022/04/21 01:44:06;;;;;;;9.68;8.68;;;;;;;6.84;57.24;99573.19;5039405;28;20103;-95
2022/04/21 01:46:32;;;;;;;9.63;8.55;;;;;;;6.77;57.00;99567.72;5039394;28;20480;-96
2022/04/21 01:48:58;;;;;;;9.55;8.65;;;;;;;6.92;57.22;99571.44;5057024;28;20028;-95
2022/04/21 01:51:23;;;;;;;10.73;9.73;;;;;;;5.52;57.66;99340.72;5039357;28;20025;-95
2022/04/21 01:53:49;;;;;;;10.70;9.60;;;;;;;7.16;57.03;99586.53;5057354;28;20052;-96
2022/04/21 01:56:16;;;;;;;11.43;10.30;;;;;;;7.06;57.30;99583.19;5039185;28;20108;-96
2022/04/21 01:58:41;;;;;;;10.77;9.73;;;;;;;7.57;57.36;99640.13;5040249;28;20021;-96
2022/04/21 02:01:07;;;;;;;10.90;9.80;;;;;;;7.24;57.69;99593.63;5038871;28;20508;-94
2022/04/21 02:03:33;;;;;;;11.13;9.88;;;;;;;7.23;57.81;99578.84;5039212;28;20035;-96
2022/04/21 02:05:59;;;;;;;11.07;10.02;;;;;;;7.57;57.58;99683.97;5039182;28;20116;-96
2022/04/21 02:08:27;;;;;;;12.25;11.05;;;;;;;7.46;57.76;99626.44;5039101;28;20025;-95
2022/04/21 02:10:53;;;;;;;11.38;10.27;;;;;;;6.58;57.86;99512.78;5039180;28;20116;-95
2022/04/21 02:13:18;;;;;;;12.15;10.88;;;;;;;6.92;57.82;99539.94;5038690;28;20485;-96
2022/04/21 02:15:44;;;;;;;11.57;10.38;;;;;;;5.98;57.89;99382.41;5039255;28;20033;-96
2022/04/21 02:18:09;;;;;;;11.80;10.02;;;;;;;6.52;58.26;99468.81;5038872;28;20142;-95
2022/04/21 02:20:35;;;;;;;11.75;10.55;;;;;;;6.65;57.92;99484.97;5038533;28;20115;-96
2022/04/21 02:23:00;;;;;;;12.63;11.43;;;;;;;6.86;58.19;99561.56;5038569;28;20029;-95
2022/04/21 02:25:26;;;;;;;13.60;12.05;;;;;;;7.41;58.29;99618.19;5038751;28;20033;-96
2022/04/21 02:27:51;;;;;;;13.88;12.43;;;;;;;7.21;58.03;99575.56;5056514;28;20504;-96
2022/04/21 02:30:19;;;;;;;12.98;11.60;;;;;;;6.43;58.28;99465.31;5038717;28;20025;-94
2022/04/21 02:32:44;;;;;;;16.42;14.50;;;;;;;6.31;58.11;99435.06;5039304;28;20033;-96
2022/04/21 02:35:11;;;;;;;16.15;14.38;;;;;;;7.32;58.44;99612.88;5038629;28;20036;-96
2022/04/21 02:37:42;;;;;;;16.67;14.85;;;;;;;7.27;58.79;99623.03;5056627;28;20103;-95
2022/04/21 02:40:11;;;;;;;21.63;17.48;;;;;;;6.66;58.70;99544.34;5039884;28;20025;-96
2022/04/21 02:42:40;;;;;;;19.98;17.88;;;;;;;7.16;58.75;99618.03;5062953;28;20025;-94
2022/04/21 02:45:07;;;;;;;18.50;15.85;;;;;;;6.10;58.67;99438.03;5064572;28;20013;-94
2022/04/21 02:47:35;;;;;;;17.35;14.50;;;;;;;6.24;58.69;99517.94;5041725;28;20029;-95
2022/04/21 02:50:01;;;;;;;17.67;15.32;;;;;;;7.00;58.72;99629.25;5038084;28;20600;-95
2022/04/21 02:52:26;;;;;;;17.20;14.52;;;;;;;6.71;58.31;99612.13;5055265;28;20051;-96
2022/04/21 02:57:37;;;;;;;17.73;13.77;;;;;;;6.38;58.50;99491.19;5055579;28;20128;-96
2022/04/21 03:00:05;;;;;;;14.30;12.80;;;;;;;6.32;58.44;99497.84;5055466;28;20029;-95
2022/04/21 03:02:31;;;;;;;14.35;12.82;;;;;;;6.67;58.71;99561.72;5038359;28;20035;-96
2022/04/21 03:04:56;;;;;;;14.68;13.15;;;;;;;5.91;58.45;99465.19;5038442;28;20033;-96
2022/04/21 03:07:22;;;;;;;14.95;13.45;;;;;;;7.01;58.75;99595.94;5038798;28;20025;-95
2022/04/21 03:09:49;;;;;;;16.60;14.82;;;;;;;5.60;58.43;99399.25;5038735;28;20485;-95
2022/04/21 03:12:15;;;;;;;18.52;16.20;;;;;;;6.59;58.75;99564.28;5039628;28;20029;-95
2022/04/21 03:14:41;;;;;;;21.50;16.38;;;;;;;6.77;58.80;99572.16;5057720;28;20040;-93
2022/04/21 03:17:10;;;;;;;19.33;17.23;;;;;;;7.00;58.26;99605.63;5063707;28;20045;-95
2022/04/21 03:19:37;;;;;;;17.45;15.13;;;;;;;6.18;58.47;99497.56;5055145;28;20481;-96
2022/04/21 03:24:47;;;;;;;16.90;13.60;;;;;;;6.53;58.69;99547.34;5069982;28;20067;-96
2022/04/21 03:27:12;;;;;;;15.55;13.35;;;;;;;6.54;59.03;99579.66;5043449;28;20029;-96
2022/04/21 03:29:39;;;;;;;17.90;14.60;;;;;;;6.91;58.63;99617.03;5055456;28;20029;-96
2022/04/21 03:32:13;;;;;;;17.55;15.10;;;;;;;4.98;58.81;99316.31;5055044;28;20029;-95
2022/04/21 03:34:42;;;;;;;20.92;17.10;;;;;;;6.48;59.03;99530.41;5055035;28;20473;-96
2022/04/21 03:37:10;;;;;;;20.05;16.42;;;;;;;6.92;58.64;99618.69;5038676;28;20017;-94
2022/04/21 03:39:38;;;;;;;17.70;15.25;;;;;;;6.93;58.68;99632.63;5038245;28;20099;-95
2022/04/21 03:42:06;;;;;;;23.75;19.05;;;;;;;6.90;59.02;99620.63;5037148;28;20107;-96
2022/04/21 03:44:32;;;;;;;22.30;15.77;;;;;;;6.23;58.94;99521.53;5037143;28;20033;-96
2022/04/21 03:46:58;;;;;;;22.40;17.85;;;;;;;6.43;58.78;99611.34;5037467;28;20029;-95
2022/04/21 03:49:28;;;;;;;18.85;16.15;;;;;;;5.58;59.18;99463.22;5037261;28;20031;-95
2022/04/21 03:51:54;;;;;;;22.80;17.50;;;;;;;6.60;59.11;99626.25;5037416;28;20027;-96
2022/04/21 03:54:20;;;;;;;27.33;19.92;;;;;;;5.63;58.64;99495.84;5055387;28;20025;-96
2022/04/21 03:56:45;;;;;;;21.10;16.67;;;;;;;5.83;59.00;99583.00;5054866;28;20599;-96
2022/04/21 03:59:11;;;;;;;20.17;16.45;;;;;;;5.96;58.68;99577.47;5037634;28;20029;-96
2022/04/21 04:01:36;;;;;;;19.70;15.85;;;;;;;5.42;58.83;99498.72;5037164;28;20029;-95
2022/04/21 04:04:01;;;;;;;15.77;13.02;;;;;;;6.33;59.22;99641.09;5037784;28;20062;-96
2022/04/21 04:11:55;;;;;;;16.08;14.32;;;;;;;5.65;59.21;99558.56;5055353;28;20036;-94
2022/04/21 04:14:21;;;;;;;16.60;14.02;;;;;;;4.40;58.79;99319.22;5037587;28;20025;-95
2022/04/21 04:16:47;;;;;;;19.65;17.50;;;;;;;5.89;58.72;99550.13;5037091;28;20028;-96
2022/04/21 04:19:12;;;;;;;17.73;15.77;;;;;;;6.49;58.79;99627.31;5037596;28;20025;-96
2022/04/21 04:21:39;;;;;;;18.73;16.27;;;;;;;6.08;58.69;99565.78;5037711;28;20116;-96
2022/04/21 04:24:04;;;;;;;17.42;14.82;;;;;;;5.36;58.88;99461.84;5036736;28;20032;-96
2022/04/21 04:26:31;;;;;;;22.75;18.05;;;;;;;6.59;58.86;99624.63;5036652;28;20035;-96
2022/04/21 04:28:57;;;;;;;19.27;17.10;;;;;;;5.96;58.39;99538.97;5036568;28;20064;-96
2022/04/21 04:31:22;;;;;;;45.70;28.15;;;;;;;5.94;58.77;99540.06;5036745;28;20518;-95
2022/04/21 04:33:48;;;;;;;28.48;23.08;;;;;;;6.33;58.57;99616.66;5036129;28;20104;-95
2022/04/21 04:36:16;;;;;;;21.13;18.05;;;;;;;6.26;58.45;99595.47;5036751;28;20035;-95
2022/04/21 04:38:43;;;;;;;22.42;17.70;;;;;;;6.62;58.75;99629.56;5036210;28;20036;-96
2022/04/21 04:43:52;;;;;;;29.88;21.35;;;;;;;5.66;58.39;99484.25;5054270;28;20031;-96
2022/04/21 04:46:36;;;;;;;22.98;19.30;;;;;;;5.18;58.37;99396.34;5036056;28;20029;-96
2022/04/21 04:49:04;;;;;;;26.73;18.40;;;;;;;6.84;57.99;99630.91;5036414;28;20468;-96
2022/04/21 04:51:29;;;;;;;21.17;16.90;;;;;;;6.22;58.48;99544.31;5036355;28;20074;-95
2022/04/21 04:53:55;;;;;;;18.42;16.42;;;;;;;5.25;58.10;99400.03;5036900;28;20025;-96
2022/04/21 04:56:21;;;;;;;19.25;15.48;;;;;;;6.88;57.87;99606.03;5036078;28;20049;-95
2022/04/21 04:58:48;;;;;;;19.35;15.57;;;;;;;5.12;57.63;99331.50;5035996;28;20107;-96
2022/04/21 05:01:18;;;;;;;16.95;15.05;;;;;;;6.97;57.83;99615.59;5035943;28;20075;-96
2022/04/21 05:03:43;;;;;;;19.88;16.17;;;;;;;6.50;57.67;99521.44;5035653;28;20075;-95
2022/04/21 05:06:09;;;;;;;18.58;15.50;;;;;;;5.65;58.09;99428.41;5036325;28;20028;-95
2022/04/21 05:08:34;;;;;;;20.63;16.90;;;;;;;6.51;57.74;99503.88;5035671;28;20028;-95
2022/04/21 05:11:00;;;;;;;19.05;15.73;;;;;;;7.18;57.86;99602.13;5035596;28;20060;-95
2022/04/21 05:13:25;;;;;;;20.75;17.30;;;;;;;7.01;57.56;99533.75;5035117;28;20060;-95
2022/04/21 05:15:51;;;;;;;21.98;17.85;;;;;;;7.05;57.19;99523.78;5035837;28;20025;-95
2022/04/21 05:18:16;;;;;;;19.65;17.27;;;;;;;7.41;57.30;99542.81;5036149;28;20032;-96
2022/04/21 05:20:42;;;;;;;19.85;17.00;;;;;;;7.89;56.81;99636.81;5036447;28;20474;-96
2022/04/21 05:23:10;;;;;;;21.42;16.65;;;;;;;7.58;57.00;99531.44;5036591;28;20082;-95
2022/04/21 05:25:40;;;;;;;17.60;15.70;;;;;;;6.34;56.78;99346.44;5036321;28;20021;-96
2022/04/21 05:28:07;;;;;;;17.05;14.60;;;;;;;7.73;56.67;99525.56;5035884;28;20033;-96
2022/04/21 05:33:21;;;;;;;17.67;15.18;;;;;;;7.68;56.68;99505.00;5050174;28;20536;-96
2022/04/21 05:35:47;;;;;;;19.85;17.02;;;;;;;7.49;56.27;99479.84;5052775;28;20040;-93
2022/04/21 05:38:16;;;;;;;20.65;17.58;;;;;;;8.16;56.60;99575.28;5052068;28;20432;-95
2022/04/21 05:40:42;;;;;;;17.88;14.63;;;;;;;8.03;56.43;99551.25;5052979;28;20021;-94
2022/04/21 05:43:12;;;;;;;18.75;15.35;;;;;;;7.14;55.94;99390.75;5029802;28;20037;-93
2022/04/21 05:45:38;;;;;;;18.38;16.45;;;;;;;7.48;55.95;99453.72;5030257;28;20039;-95
2022/04/21 05:48:04;;;;;;;17.75;15.55;;;;;;;7.50;55.79;99455.22;5032088;28;20029;-96
2022/04/21 05:50:29;;;;;;;16.08;14.32;;;;;;;8.59;55.60;99611.06;5035642;28;20417;-95
2022/04/21 05:53:01;;;;;;;17.92;14.80;;;;;;;8.59;55.26;99620.78;5045073;28;20025;-95
2022/04/21 05:55:26;;;;;;;16.60;14.88;;;;;;;7.79;55.33;99486.31;5042700;28;20048;-94
2022/04/21 05:57:52;;;;;;;23.05;16.83;;;;;;;8.40;55.68;99542.16;5034197;28;20084;-96
2022/04/21 06:00:17;;;;;;;18.60;15.70;;;;;;;8.84;55.21;99605.81;5035546;28;20115;-96
2022/04/21 06:02:43;;;;;;;19.27;15.82;;;;;;;7.68;55.16;99417.47;5035583;28;20064;-93
2022/04/21 06:05:09;;;;;;;20.75;15.80;;;;;;;8.74;54.49;99592.81;5037960;28;20021;-93
2022/04/21 06:07:34;;;;;;;16.20;14.50;;;;;;;9.32;55.17;99647.09;5035582;28;20064;-93
2022/04/21 06:09:59;;;;;;;18.40;14.70;;;;;;;9.12;54.56;99632.63;5034590;28;20025;-93
2022/04/21 06:12:25;;;;;;;15.55;12.43;;;;;;;8.65;54.73;99543.78;5049153;28;20071;-93
2022/04/21 06:14:51;;;;;;;15.52;13.75;;;;;;;9.08;54.32;99599.72;5030902;28;20049;-92
2022/04/21 06:17:17;;;;;;;18.65;15.02;;;;;;;8.42;54.22;99482.28;5048163;28;20029;-93
2022/04/21 06:19:43;;;;;;;20.50;15.90;;;;;;;9.21;53.93;99632.47;5032392;28;20029;-92
2022/04/21 06:22:08;;;;;;;18.45;13.48;;;;;;;8.89;54.12;99553.47;5037406;28;20057;-91
2022/04/21 06:24:35;;;;;;;14.25;12.10;;;;;;;8.58;53.72;99508.59;5043410;28;20033;-92
2022/04/21 06:27:02;;;;;;;15.70;12.48;;;;;;;8.91;53.51;99554.13;5033637;28;20071;-90
2022/04/21 06:29:27;;;;;;;12.30;10.45;;;;;;;8.24;53.29;99479.81;5054817;28;20041;-92
2022/04/21 06:31:52;;;;;;;10.32;7.72;;;;;;;7.84;53.28;99407.78;5053388;28;20403;-92
2022/04/21 06:34:18;;;;;;;8.77;7.88;;;;;;;9.17;52.90;99588.19;5037040;28;20029;-90
2022/04/21 06:36:43;;;;;;;8.02;6.57;;;;;;;7.84;52.78;99367.53;5034534;28;20124;-92
2022/04/21 06:39:09;;;;;;;10.93;8.77;;;;;;;9.05;52.78;99531.56;5040613;28;20112;-92
2022/04/21 06:41:35;;;;;;;9.98;7.88;;;;;;;9.10;52.36;99531.91;5043476;28;20029;-92
2022/04/21 06:49:28;;;;;;;8.45;7.65;;;;;;;9.91;52.08;99644.97;5042389;28;20516;-93
2022/04/21 06:51:53;;;;;;;10.77;9.68;;;;;;;9.79;51.72;99597.06;5035583;28;20026;-93
2022/04/21 06:54:19;;;;;;;6.47;5.88;;;;;;;9.79;51.59;99598.88;5025354;28;20170;-92
2022/04/21 06:56:48;;;;;;;6.90;6.07;;;;;;;10.26;52.07;99674.53;5026928;28;20052;-92
2022/04/21 06:59:15;;;;;;;6.18;5.60;;;;;;;9.88;51.33;99597.84;5026761;28;20032;-92
2022/04/21 07:01:41;;;;;;;7.03;6.40;;;;;;;9.85;51.28;99564.72;5034235;28;20021;-92
2022/04/21 07:04:07;;;;;;;5.47;4.97;;;;;;;10.49;51.22;99662.22;5024850;28;20091;-92
2022/04/21 07:06:32;;;;;;;6.78;6.18;;;;;;;10.58;50.90;99658.53;5021436;28;20516;-92
2022/04/21 07:08:57;;;;;;;6.00;5.10;;;;;;;10.22;51.46;99592.25;5041642;28;20036;-92
2022/04/21 07:11:23;;;;;;;8.13;4.93;;;;;;;9.87;50.97;99527.63;5051705;28;20093;-91
2022/04/21 07:13:48;;;;;;;7.95;6.57;;;;;;;10.66;51.09;99652.38;5027091;28;20040;-92
2022/04/21 07:16:14;;;;;;;8.20;6.65;;;;;;;10.17;50.70;99558.44;5046596;28;20029;-92
2022/04/21 07:18:39;;;;;;;7.20;6.50;;;;;;;10.02;51.16;99536.44;5025890;28;20075;-92
2022/04/21 07:21:09;;;;;;;9.95;7.07;;;;;;;10.58;50.50;99637.41;5050038;28;20049;-92
2022/04/21 07:23:35;;;;;;;6.78;6.18;;;;;;;9.82;50.82;99493.06;5038991;28;20024;-91
2022/04/21 07:26:00;;;;;;;7.30;6.05;;;;;;;9.81;50.40;99479.06;5055760;28;20056;-90
2022/04/21 07:28:25;;;;;;;9.65;8.65;;;;;;;10.39;50.41;99561.28;5038961;28;20071;-89
2022/04/21 07:30:51;;;;;;;7.72;6.97;;;;;;;10.88;49.88;99630.41;5039436;28;20235;-90
2022/04/21 07:33:18;;;;;;;9.00;6.55;;;;;;;11.24;50.64;99664.13;5048846;28;20502;-91
2022/04/21 07:35:43;;;;;;;5.93;5.30;;;;;;;10.86;49.87;99586.69;5033374;28;20029;-89
2022/04/21 07:38:09;;;;;;;5.30;4.80;;;;;;;8.89;49.39;99264.69;5032964;28;20022;-91
2022/04/21 07:40:36;;;;;;;4.57;4.18;;;;;;;11.24;49.63;99654.41;5028445;28;20426;-92
2022/04/21 07:43:07;;;;;;;5.10;4.60;;;;;;;11.42;49.40;99662.81;5033742;28;20035;-92
2022/04/21 07:45:34;;;;;;;6.95;6.35;;;;;;;11.42;49.53;99657.53;5035719;28;20096;-90
2022/04/21 07:47:59;;;;;;;5.70;5.13;;;;;;;11.50;49.18;99674.31;5032461;28;20038;-91
2022/04/21 07:50:25;;;;;;;7.53;6.70;;;;;;;11.46;49.34;99644.75;5026792;28;20029;-92
2022/04/21 07:55:35;;;;;;;6.57;5.97;;;;;;;11.21;49.38;99570.19;5035345;28;20091;-91
2022/04/21 07:58:01;;;;;;;5.05;4.65;;;;;;;11.82;48.58;99662.56;5027913;28;20037;-91
2022/04/21 08:00:26;;;;;;;6.75;6.15;;;;;;;11.09;48.98;99543.34;5034849;28;20391;-90
2022/04/21 08:02:52;;;;;;;5.13;4.63;;;;;;;11.08;48.38;99554.91;5022277;28;20087;-91
2022/04/21 08:05:20;;;;;;;5.25;4.85;;;;;;;11.97;48.48;99656.31;5031971;28;20074;-92
2022/04/21 08:07:46;;;;;;;4.60;4.20;;;;;;;11.82;48.58;99638.78;5030254;28;20034;-92
2022/04/21 08:10:12;;;;;;;4.82;4.43;;;;;;;12.13;48.70;99672.97;5027930;28;20033;-91
2022/04/21 08:12:46;;;;;;;5.88;4.88;;;;;;;10.91;48.51;99476.03;5026522;28;20025;-92
2022/04/21 08:15:14;;;;;;;5.90;5.40;;;;;;;12.10;48.56;99668.88;5045334;28;20028;-91
2022/04/21 08:17:40;;;;;;;5.88;5.38;;;;;;;10.77;48.72;99496.13;5020666;28;20033;-92
2022/04/21 08:20:06;;;;;;;7.13;6.43;;;;;;;12.23;48.48;99663.75;5028209;28;20041;-91
2022/04/21 08:22:32;;;;;;;6.65;6.05;;;;;;;12.05;48.51;99642.16;5028611;28;20025;-89
2022/04/21 08:33:10;;;;;;;7.28;5.93;;;;;;;12.34;49.25;99673.84;5036783;28;20071;-91
2022/04/21 08:35:35;;;;;;;5.68;5.18;;;;;;;12.03;49.36;99615.88;5022048;28;20049;-92
2022/04/21 08:38:01;;;;;;;10.02;7.43;;;;;;;11.25;49.86;99510.66;5022869;28;20509;-93
2022/04/21 08:40:29;;;;;;;5.15;4.65;;;;;;;12.61;49.92;99680.25;5038409;28;20033;-92
2022/04/21 08:42:56;;;;;;;5.47;4.95;;;;;;;12.54;49.76;99625.59;5037695;28;20029;-92
2022/04/21 08:45:23;;;;;;;7.75;6.68;;;;;;;12.46;49.86;99580.69;5041173;28;20037;-91
2022/04/21 08:47:49;;;;;;;6.28;5.68;;;;;;;12.00;49.51;99557.22;5041651;28;20049;-92
2022/04/21 08:50:16;;;;;;;3.83;3.53;;;;;;;11.65;49.11;99443.22;5039088;28;20493;-92
2022/04/21 08:52:43;;;;;;;5.38;4.88;;;;;;;13.12;48.80;99629.78;5020060;28;20049;-91
2022/04/21 08:55:10;;;;;;;4.65;4.25;;;;;;;12.87;48.59;99565.78;5022107;28;20111;-90
2022/04/21 08:57:35;;;;;;;5.10;4.40;;;;;;;13.31;48.32;99638.94;5015640;28;20453;-92
2022/04/21 09:00:06;;;;;;;5.32;4.82;;;;;;;13.47;48.68;99662.53;5025745;28;20029;-91
2022/04/21 09:02:37;;;;;;;5.30;4.55;;;;;;;12.87;48.13;99535.81;5030374;28;20037;-91
2022/04/21 09:05:04;;;;;;;6.70;5.45;;;;;;;13.79;47.38;99653.13;5015323;28;20029;-91
2022/04/21 09:07:30;;;;;;;4.70;4.30;;;;;;;13.54;46.77;99594.44;5048559;28;20103;-91
2022/04/21 09:10:13;;;;;;;7.95;7.15;;;;;;;14.15;46.63;99634.34;5040327;28;20498;-92
2022/04/21 09:12:44;;;;;;;3.38;3.08;;;;;;;14.14;45.72;99661.91;5017125;28;20032;-92
2022/04/21 09:15:12;;;;;;;3.33;3.03;;;;;;;12.51;44.95;99400.84;5017134;28;20167;-92
2022/04/21 09:18:01;;;;;;;4.63;3.70;;;;;;;14.27;44.22;99651.34;5035081;28;20107;-91
2022/04/21 09:20:39;;;;;;;7.30;4.13;;;;;;;14.18;44.48;99628.63;5019277;28;20108;-91
2022/04/21 09:23:10;;;;;;;5.25;4.75;;;;;;;14.37;44.69;99628.91;5035426;28;20016;-91
2022/04/21 09:25:49;;;;;;;4.28;3.95;;;;;;;14.84;44.35;99641.28;5034551;28;20095;-91
2022/04/21 09:28:22;;;;;;;4.57;3.42;;;;;;;15.18;43.74;99641.09;5050233;28;20025;-91
2022/04/21 09:30:50;;;;;;;4.18;3.60;;;;;;;15.08;43.54;99589.34;5023754;28;20033;-91
2022/04/21 09:33:29;;;;;;;5.22;4.70;;;;;;;15.47;43.82;99631.03;5017261;28;20037;-90
2022/04/21 09:36:00;;;;;;;4.88;4.47;;;;;;;13.99;43.74;99395.75;5030927;28;20033;-91
2022/04/21 09:38:26;;;;;;;3.23;2.93;;;;;;;15.31;43.73;99592.41;5019146;28;20039;-91
2022/04/21 09:40:51;;;;;;;4.50;3.75;;;;;;;15.41;43.94;99589.31;5031739;28;20677;-89
2022/04/21 09:43:28;;;;;;;3.60;3.30;;;;;;;15.79;43.78;99614.22;5044414;28;20032;-90
2022/04/21 09:46:09;;;;;;;4.50;4.10;;;;;;;15.22;43.46;99495.22;5042224;28;20112;-90
2022/04/21 09:48:34;;;;;;;6.15;4.57;;;;;;;14.86;43.37;99424.75;5034595;28;20391;-90
2022/04/21 09:51:17;;;;;;;3.78;3.08;;;;;;;15.89;43.49;99564.00;5035210;28;20129;-90
2022/04/21 09:54:02;;;;;;;3.35;3.05;;;;;;;16.33;43.15;99604.16;5013192;28;20045;-91
2022/04/21 09:56:41;;;;;;;3.13;2.92;;;;;;;16.51;42.70;99602.44;5014682;28;20133;-90
2022/04/21 09:59:12;;;;;;;3.45;2.65;;;;;;;15.67;42.04;99410.97;5014981;28;20032;-90
2022/04/21 10:01:41;;;;;;;2.90;2.70;;;;;;;16.68;41.64;99560.09;5017900;28;20018;-90
2022/04/21 10:04:12;;;;;;;2.83;2.60;;;;;;;16.52;41.51;99558.75;5038075;28;20116;-89
2022/04/21 10:06:41;;;;;;;2.95;2.75;;;;;;;16.05;41.48;99458.03;5055875;28;20073;-91
2022/04/21 10:09:08;;;;;;;3.65;3.33;;;;;;;16.53;41.46;99533.72;5037770;28;20040;-90
2022/04/21 10:11:36;;;;;;;3.28;3.08;;;;;;;16.38;41.20;99511.09;5056071;28;20036;-91
2022/04/21 10:14:04;;;;;;;4.45;4.05;;;;;;;15.86;41.37;99386.06;5037983;28;20094;-90
2022/04/21 10:16:29;;;;;;;9.68;7.97;;;;;;;16.75;41.27;99536.88;5037155;28;20115;-90
2022/04/21 10:18:57;;;;;;;4.00;3.70;;;;;;;16.36;41.38;99502.50;5037063;28;20128;-89
2022/04/21 10:21:49;;;;;;;9.65;3.25;;;;;;;16.55;41.50;99556.69;5037383;28;20498;-90
2022/04/21 10:24:22;;;;;;;;;;;;;;;16.35;42.15;99552.31;5017827;28;20060;-91
2022/04/21 10:26:48;;;;;;;7.25;3.95;;;;;;;16.12;41.71;99528.84;5017789;28;19912;-87
2022/04/21 10:29:15;;;;;;;3.33;2.85;;;;;;;16.02;40.81;99475.25;5017785;28;20032;-89
2022/04/21 10:32:00;;;;;;;3.60;3.30;;;;;;;16.51;40.19;99548.31;5035639;28;20075;-90
2022/04/21 10:34:38;;;;;;;2.80;2.60;;;;;;;16.83;39.99;99578.44;5035453;28;20498;-90
2022/04/21 10:37:13;;;;;;;4.55;3.60;;;;;;;17.22;39.15;99542.59;5030637;28;20032;-89
2022/04/21 10:40:10;;;;;;;2.30;2.10;;;;;;;17.48;37.95;99555.66;5037354;28;20505;-89
2022/04/21 10:42:58;;;;;;;5.05;3.42;;;;;;;17.55;37.82;99514.72;5055478;28;20060;-90
2022/04/21 10:45:32;;;;;;;3.83;3.53;;;;;;;17.79;38.45;99552.03;5037434;28;20032;-88
2022/04/21 10:48:08;;;;;;;2.55;2.35;;;;;;;17.57;37.12;99500.13;5036777;28;20032;-89
2022/04/21 10:50:39;;;;;;;2.45;2.15;;;;;;;17.90;37.01;99544.34;5054726;28;20524;-89
2022/04/21 10:58:35;;;;;;;2.70;2.42;;;;;;;18.81;36.66;99554.75;5035036;28;20102;-88
2022/04/21 11:01:07;;;;;;;3.60;2.67;;;;;;;19.07;36.51;99550.00;5017352;28;20033;-88
2022/04/21 11:03:33;;;;;;;5.20;3.10;;;;;;;19.00;36.12;99497.41;5035071;28;20036;-89
2022/04/21 11:06:36;;;;;;;3.97;2.83;;;;;;;19.23;35.88;99551.97;5017734;28;20022;-89
2022/04/21 11:09:02;;;;;;;3.50;2.42;;;;;;;18.16;35.76;99437.09;5036271;28;20037;-88
2022/04/21 11:11:45;;;;;;;3.88;3.22;;;;;;;18.30;36.12;99526.72;5017235;28;20022;-88
2022/04/21 11:14:10;;;;;;;2.38;2.00;;;;;;;17.56;36.43;99417.59;5035895;28;20018;-90
2022/04/21 11:16:42;;;;;;;4.05;2.83;;;;;;;18.37;36.44;99546.13;5035359;28;20034;-89
2022/04/21 11:19:26;;;;;;;;;;;;;;;18.28;36.68;99544.03;5034667;28;20564;-88
2022/04/21 11:21:52;;;;;;;2.88;2.67;;;;;;;17.81;37.15;99476.22;5034311;28;20396;-88
2022/04/21 11:24:18;;;;;;;2.72;2.50;;;;;;;17.61;36.92;99420.38;5016572;28;20033;-87
2022/04/21 11:26:43;;;;;;;3.28;2.65;;;;;;;18.63;36.58;99553.00;5015887;28;20026;-89
2022/04/21 11:29:09;;;;;;;3.88;2.33;;;;;;;18.19;36.19;99476.72;5033978;28;20021;-89
2022/04/21 11:31:34;;;;;;;1.90;1.80;;;;;;;18.48;35.43;99471.53;5016250;28;20018;-89
2022/04/21 11:34:02;;;;;;;2.30;2.10;;;;;;;18.26;35.54;99415.16;5016487;28;20018;-89
2022/04/21 11:36:40;;;;;;;6.97;2.30;;;;;;;18.70;35.46;99451.25;5019104;28;20115;-89
2022/04/21 11:39:10;;;;;;;3.13;2.80;;;;;;;19.40;35.32;99541.38;5045929;28;20021;-89
2022/04/21 11:41:42;;;;;;;2.38;2.17;;;;;;;19.01;35.05;99471.47;5035973;28;20017;-89
2022/04/21 11:44:08;;;;;;;3.75;2.50;;;;;;;19.15;35.39;99507.63;5018084;28;20024;-88
2022/04/21 11:46:37;;;;;;;3.63;2.47;;;;;;;19.08;35.83;99498.09;5039013;28;20414;-88
2022/04/21 11:49:03;;;;;;;3.83;3.30;;;;;;;18.38;35.86;99373.19;5038986;28;20051;-88
2022/04/21 11:51:30;;;;;;;3.20;2.92;;;;;;;19.22;36.13;99527.06;5022226;28;20126;-88
2022/04/21 11:54:02;;;;;;;2.92;1.80;;;;;;;19.14;35.05;99511.38;5031952;28;20163;-88
2022/04/21 11:56:27;;;;;;;1.80;1.70;;;;;;;18.92;34.89;99475.56;5037831;28;20104;-86
2022/04/21 11:58:53;;;;;;;3.55;3.15;;;;;;;19.27;34.38;99510.28;5048908;28;20025;-88
2022/04/21 12:06:57;;;;;;;2.85;2.50;;;;;;;20.22;33.60;99488.38;5039210;28;20036;-88
2022/04/21 12:09:25;;;;;;;2.60;2.13;;;;;;;19.05;33.80;99328.13;5040448;28;20021;-90
2022/04/21 12:11:56;;;;;;;2.72;2.25;;;;;;;19.77;33.99;99485.66;5030432;28;20028;-87
2022/04/21 12:14:22;;;;;;;3.97;2.33;;;;;;;19.38;34.71;99472.00;5032517;28;20029;-88
2022/04/21 12:16:53;;;;;;;2.92;2.60;;;;;;;18.49;34.87;99387.59;5028579;28;20026;-88
2022/04/21 12:19:38;;;;;;;3.03;2.22;;;;;;;18.95;34.91;99477.75;5020882;28;20116;-87
2022/04/21 12:22:18;;;;;;;2.72;2.53;;;;;;;18.79;35.33;99449.84;5025267;28;20021;-88
2022/04/21 12:24:44;;;;;;;3.70;2.63;;;;;;;19.13;35.07;99474.13;5031795;28;20114;-88
2022/04/21 12:27:20;;;;;;;3.40;2.75;;;;;;;19.19;35.25;99470.50;5051238;28;20028;-89